Time;durP1;ratioP1;P1;durP2;ratioP2;P2;SDS_P1;SDS_P2;PMS_P1;PMS_P2;Temp;Humidity;BMP_temperature;BMP_pressure;BME280_temperature;BME280_humidity;BME280_pressure;Samples;Min_cycle;Max_cycle;Signal;HPM_P1;HPM_P2
2021/05/31 00:00:21;;;;;;;2.10;1.90;;;8.60;99.90;;;;;;5040368;28;20081;-77
2021/05/31 00:02:47;;;;;;;5.10;2.95;;;8.60;99.90;;;;;;5043100;28;20073;-78
2021/05/31 00:05:14;;;;;;;3.97;2.30;;;8.60;99.90;;;;;;5048207;28;22334;-77
2021/05/31 00:07:39;;;;;;;2.58;2.22;;;8.50;99.90;;;;;;5036951;28;20093;-77
2021/05/31 00:10:08;;;;;;;4.38;2.72;;;8.50;99.90;;;;;;5039093;28;20773;-77
2021/05/31 00:12:34;;;;;;;4.05;2.60;;;8.50;99.90;;;;;;5032682;28;20184;-77
2021/05/31 00:15:00;;;;;;;2.80;2.10;;;8.50;99.90;;;;;;5030145;28;20104;-77
2021/05/31 00:17:26;;;;;;;2.47;2.22;;;8.50;99.90;;;;;;5030826;28;20094;-76
2021/05/31 00:19:53;;;;;;;4.75;2.63;;;8.10;99.90;;;;;;5033731;28;20101;-76
2021/05/31 00:22:23;;;;;;;3.08;2.72;;;8.30;99.90;;;;;;5032801;28;20165;-75
2021/05/31 00:24:50;;;;;;;4.10;2.25;;;8.30;99.90;;;;;;5036437;28;20086;-75
2021/05/31 00:27:16;;;;;;;3.17;2.35;;;8.30;99.90;;;;;;5037019;28;20125;-76
2021/05/31 00:29:43;;;;;;;8.93;2.50;;;8.30;99.90;;;;;;5039536;28;20084;-76
2021/05/31 00:32:09;;;;;;;2.58;2.20;;;8.30;99.90;;;;;;5030279;28;20561;-76
2021/05/31 00:34:35;;;;;;;2.85;2.38;;;8.40;99.90;;;;;;5038822;28;20089;-74
2021/05/31 00:37:01;;;;;;;2.28;1.92;;;8.40;99.90;;;;;;5033064;28;20078;-74
2021/05/31 00:39:27;;;;;;;3.42;2.42;;;8.30;99.90;;;;;;5051967;28;20070;-74
2021/05/31 00:41:53;;;;;;;3.83;2.25;;;8.20;99.90;;;;;;5051954;28;20604;-74
2021/05/31 00:44:21;;;;;;;4.88;2.83;;;8.10;99.90;;;;;;5040029;28;20093;-76
2021/05/31 00:46:49;;;;;;;6.80;2.60;;;8.20;99.90;;;;;;5013654;28;20098;-76
2021/05/31 00:49:19;;;;;;;3.92;2.40;;;8.20;99.90;;;;;;5040568;28;20069;-74
2021/05/31 00:51:46;;;;;;;2.35;1.90;;;8.20;99.90;;;;;;5043482;28;20534;-74
2021/05/31 00:54:12;;;;;;;6.82;3.05;;;8.20;99.90;;;;;;5051518;28;20109;-74
2021/05/31 00:56:40;;;;;;;3.85;2.53;;;8.10;99.90;;;;;;5036481;28;20097;-74
2021/05/31 00:59:06;;;;;;;3.08;2.58;;;8.00;99.90;;;;;;5029668;28;20077;-74
2021/05/31 01:01:32;;;;;;;2.90;2.30;;;8.00;99.90;;;;;;5032683;28;20074;-75
2021/05/31 01:03:57;;;;;;;4.38;2.85;;;8.10;99.90;;;;;;5021877;28;20076;-75
2021/05/31 01:06:29;;;;;;;3.88;2.28;;;8.20;99.90;;;;;;5025603;28;20120;-74
2021/05/31 01:09:02;;;;;;;6.80;2.40;;;8.20;99.90;;;;;;5040209;28;20082;-75
2021/05/31 01:11:41;;;;;;;4.05;2.58;;;8.20;99.90;;;;;;5030857;28;20851;-75
2021/05/31 01:14:12;;;;;;;2.47;2.28;;;8.00;99.90;;;;;;5027558;28;20093;-75
2021/05/31 01:16:49;;;;;;;5.47;2.30;;;7.90;99.90;;;;;;5011218;28;20735;-74
2021/05/31 01:19:42;;;;;;;2.90;2.33;;;8.00;99.90;;;;;;5035890;28;20148;-74
2021/05/31 01:22:10;;;;;;;5.15;2.75;;;7.70;99.90;;;;;;5036556;28;20078;-74
2021/05/31 01:24:51;;;;;;;3.10;2.65;;;7.70;99.90;;;;;;5032579;28;20074;-74
2021/05/31 01:27:19;;;;;;;3.67;2.80;;;7.60;99.90;;;;;;5038184;28;20164;-75
2021/05/31 01:30:06;;;;;;;3.63;2.47;;;7.60;99.90;;;;;;5032178;28;20108;-76
2021/05/31 01:32:39;;;;;;;2.75;2.50;;;7.60;99.90;;;;;;5032359;28;20093;-74
2021/05/31 01:35:12;;;;;;;4.10;3.30;;;7.60;99.90;;;;;;5039535;28;20086;-77
2021/05/31 01:37:40;;;;;;;3.25;2.95;;;7.70;99.90;;;;;;5038656;28;20903;-74
2021/05/31 01:40:09;;;;;;;3.20;2.78;;;7.70;99.90;;;;;;5037526;28;20085;-74
2021/05/31 01:42:35;;;;;;;3.75;2.75;;;7.60;99.90;;;;;;5047620;28;20073;-74
2021/05/31 01:45:02;;;;;;;3.70;2.60;;;7.60;99.90;;;;;;5045249;28;20147;-74
2021/05/31 01:47:29;;;;;;;3.92;2.63;;;7.60;99.90;;;;;;5038523;28;20553;-74
2021/05/31 01:49:55;;;;;;;3.53;2.58;;;7.60;99.90;;;;;;5030850;28;20069;-74
2021/05/31 01:52:24;;;;;;;3.50;3.03;;;7.50;99.90;;;;;;5047829;28;20602;-75
2021/05/31 01:54:56;;;;;;;5.80;3.60;;;7.60;99.90;;;;;;5031388;28;20117;-74
2021/05/31 01:57:43;;;;;;;4.22;2.70;;;7.40;99.90;;;;;;5029213;28;20082;-76
2021/05/31 02:00:13;;;;;;;3.90;2.80;;;7.50;99.90;;;;;;5012014;28;20070;-75
2021/05/31 02:02:40;;;;;;;3.45;3.13;;;7.40;99.90;;;;;;5011458;28;20066;-74
2021/05/31 02:05:07;;;;;;;2.90;2.58;;;7.30;99.90;;;;;;5032158;28;20074;-74
2021/05/31 02:07:32;;;;;;;6.35;2.80;;;7.30;99.90;;;;;;5031263;28;20733;-75
2021/05/31 02:09:58;;;;;;;4.30;2.70;;;7.30;99.90;;;;;;5028728;28;20173;-74
2021/05/31 02:12:31;;;;;;;3.28;2.67;;;7.20;99.90;;;;;;5036192;28;20077;-74
2021/05/31 02:15:07;;;;;;;3.70;2.95;;;7.30;99.90;;;;;;5016418;28;20105;-77
2021/05/31 02:17:41;;;;;;;4.03;2.90;;;7.30;99.90;;;;;;5025539;28;20089;-75
2021/05/31 02:20:09;;;;;;;7.68;2.50;;;7.10;99.90;;;;;;5033122;28;20077;-76
2021/05/31 02:22:39;;;;;;;4.30;2.55;;;7.20;99.90;;;;;;5037273;28;20739;-76
2021/05/31 02:25:06;;;;;;;3.75;3.00;;;7.10;99.90;;;;;;5033134;28;20082;-77
2021/05/31 02:27:32;;;;;;;3.65;2.80;;;7.10;99.90;;;;;;5029706;28;20592;-75
2021/05/31 02:30:01;;;;;;;4.00;3.10;;;7.10;99.90;;;;;;5049198;28;20073;-74
2021/05/31 02:32:28;;;;;;;3.55;3.17;;;7.10;99.90;;;;;;5048659;28;20089;-76
2021/05/31 02:34:54;;;;;;;3.13;2.80;;;7.10;99.90;;;;;;5045764;28;20092;-76
2021/05/31 02:37:29;;;;;;;3.72;3.20;;;7.00;99.90;;;;;;5039954;28;20085;-75
2021/05/31 02:39:55;;;;;;;3.97;2.90;;;7.20;99.90;;;;;;5013606;28;20078;-75
2021/05/31 02:42:20;;;;;;;9.00;3.28;;;7.00;99.90;;;;;;5031559;28;20157;-76
2021/05/31 02:44:46;;;;;;;6.78;3.15;;;6.90;99.90;;;;;;5034981;28;20112;-75
2021/05/31 02:47:11;;;;;;;5.47;3.30;;;6.90;99.90;;;;;;5031153;28;20113;-75
2021/05/31 02:49:37;;;;;;;4.25;3.67;;;7.00;99.90;;;;;;5027294;28;20073;-76
2021/05/31 02:52:03;;;;;;;3.17;2.63;;;7.00;99.90;;;;;;5014016;28;20132;-76
2021/05/31 02:54:29;;;;;;;4.05;2.80;;;7.00;99.90;;;;;;5029908;28;20090;-76
2021/05/31 02:56:55;;;;;;;3.60;3.03;;;7.00;99.90;;;;;;5017550;28;20082;-75
2021/05/31 02:59:20;;;;;;;4.05;3.10;;;7.10;99.90;;;;;;5033446;28;20589;-75
2021/05/31 03:01:46;;;;;;;4.00;3.33;;;7.10;99.90;;;;;;5014820;28;20069;-76
2021/05/31 03:04:11;;;;;;;5.85;3.10;;;7.00;99.90;;;;;;5035471;28;20074;-75
2021/05/31 03:06:37;;;;;;;3.95;2.95;;;7.10;99.90;;;;;;5032336;28;20100;-76
2021/05/31 03:09:02;;;;;;;4.88;2.88;;;7.10;99.90;;;;;;5037413;28;20610;-75
2021/05/31 03:11:28;;;;;;;6.13;3.33;;;7.00;99.90;;;;;;5026231;28;20117;-76
2021/05/31 03:13:54;;;;;;;3.30;3.00;;;7.00;99.90;;;;;;5041196;28;20152;-76
2021/05/31 03:16:19;;;;;;;3.97;2.83;;;7.10;99.90;;;;;;5033356;28;20093;-75
2021/05/31 03:18:45;;;;;;;5.25;3.50;;;7.00;99.90;;;;;;5038455;28;20101;-76
2021/05/31 03:21:10;;;;;;;3.30;2.65;;;7.00;99.90;;;;;;5043034;28;20108;-76
2021/05/31 03:23:36;;;;;;;4.53;3.30;;;7.10;99.90;;;;;;5036959;28;20066;-76
2021/05/31 03:26:02;;;;;;;4.78;3.53;;;7.10;99.90;;;;;;5039374;28;20564;-76
2021/05/31 03:28:27;;;;;;;3.88;3.35;;;7.20;99.90;;;;;;5025616;28;20082;-76
2021/05/31 03:30:53;;;;;;;4.05;3.17;;;7.20;99.90;;;;;;5034235;28;21094;-76
2021/05/31 03:33:18;;;;;;;3.45;2.90;;;7.10;99.90;;;;;;5043995;28;20073;-75
2021/05/31 03:35:44;;;;;;;5.97;2.75;;;7.00;99.90;;;;;;5035205;28;20085;-76
2021/05/31 03:38:09;;;;;;;4.00;3.05;;;6.90;99.90;;;;;;5032303;28;20117;-75
2021/05/31 03:40:35;;;;;;;3.40;2.53;;;6.80;99.90;;;;;;5013592;28;20081;-75
2021/05/31 03:43:01;;;;;;;4.07;3.55;;;6.90;99.90;;;;;;5033248;28;20076;-75
2021/05/31 03:45:26;;;;;;;4.03;3.58;;;6.90;99.90;;;;;;5041095;28;20096;-75
2021/05/31 03:47:52;;;;;;;4.15;3.03;;;6.90;99.90;;;;;;5047705;28;20134;-75
2021/05/31 03:50:18;;;;;;;4.10;2.97;;;6.90;99.90;;;;;;5033702;28;20077;-75
2021/05/31 03:52:45;;;;;;;4.88;2.72;;;6.70;99.90;;;;;;5032579;28;20165;-75
2021/05/31 03:55:11;;;;;;;4.15;3.10;;;6.80;99.90;;;;;;5031832;28;20085;-76
2021/05/31 03:57:37;;;;;;;3.97;3.03;;;7.00;99.90;;;;;;5031126;28;20558;-75
2021/05/31 04:00:08;;;;;;;4.60;3.35;;;7.10;99.90;;;;;;5032697;28;20074;-76
2021/05/31 04:02:36;;;;;;;3.28;2.97;;;7.20;99.90;;;;;;5040485;28;20132;-75
2021/05/31 04:05:02;;;;;;;5.93;3.10;;;6.90;99.90;;;;;;5038139;28;20069;-75
2021/05/31 04:12:56;;;;;;;3.55;3.15;;;7.10;99.90;;;;;;5050174;28;20116;-76
2021/05/31 04:15:23;;;;;;;3.75;3.05;;;7.20;99.90;;;;;;5040906;28;20123;-76
2021/05/31 04:17:49;;;;;;;3.40;2.83;;;7.30;99.90;;;;;;5036925;28;20557;-76
2021/05/31 04:20:15;;;;;;;3.75;3.28;;;7.30;99.90;;;;;;5031518;28;20188;-75
2021/05/31 04:22:40;;;;;;;4.13;3.40;;;7.30;99.90;;;;;;5042584;28;20402;-75
2021/05/31 04:25:07;;;;;;;4.10;3.22;;;7.40;99.90;;;;;;5035122;28;20081;-76
2021/05/31 04:27:32;;;;;;;5.35;3.35;;;7.40;99.90;;;;;;5040737;28;20872;-75
2021/05/31 04:29:58;;;;;;;3.78;3.38;;;7.40;99.90;;;;;;5037304;28;20173;-76
2021/05/31 04:32:24;;;;;;;5.68;3.13;;;7.40;99.90;;;;;;5032607;28;20081;-77
2021/05/31 04:34:50;;;;;;;4.60;3.05;;;7.30;99.90;;;;;;5036129;28;20086;-75
2021/05/31 04:37:16;;;;;;;4.68;3.15;;;7.30;99.90;;;;;;5049754;28;20109;-75
2021/05/31 04:39:42;;;;;;;4.32;3.17;;;7.20;99.90;;;;;;5042320;28;21809;-75
2021/05/31 04:42:08;;;;;;;3.92;3.05;;;7.40;99.90;;;;;;5035890;28;20088;-75
2021/05/31 04:44:35;;;;;;;4.72;3.47;;;7.60;99.90;;;;;;5030876;28;20085;-76
2021/05/31 04:47:01;;;;;;;4.70;3.40;;;7.80;99.90;;;;;;5033912;28;20117;-76
2021/05/31 04:49:28;;;;;;;5.60;3.78;;;7.80;99.90;;;;;;5039246;28;20518;-76
2021/05/31 04:51:53;;;;;;;4.85;3.58;;;7.90;99.90;;;;;;5049508;28;20073;-76
2021/05/31 04:54:19;;;;;;;6.68;4.00;;;8.10;99.90;;;;;;5032706;28;20120;-77
2021/05/31 04:56:45;;;;;;;5.57;4.40;;;8.40;99.90;;;;;;5034239;28;20143;-76
2021/05/31 04:59:12;;;;;;;6.25;4.35;;;8.70;99.90;;;;;;5049021;28;20077;-76
2021/05/31 05:01:37;;;;;;;7.35;5.28;;;8.80;99.90;;;;;;5022713;28;20077;-76
2021/05/31 05:04:05;;;;;;;7.10;4.88;;;9.00;99.90;;;;;;5036269;28;20081;-76
2021/05/31 05:06:30;;;;;;;6.80;5.03;;;9.10;99.90;;;;;;5037242;28;21296;-77
2021/05/31 05:08:56;;;;;;;6.97;4.85;;;9.20;99.90;;;;;;5032115;28;20105;-76
2021/05/31 05:11:22;;;;;;;5.55;4.45;;;9.30;99.90;;;;;;5028882;28;20527;-75
2021/05/31 05:13:50;;;;;;;6.65;4.35;;;9.50;99.90;;;;;;5030479;28;20101;-76
2021/05/31 05:16:17;;;;;;;7.90;4.70;;;9.50;99.90;;;;;;5031422;28;20098;-75
2021/05/31 05:18:47;;;;;;;6.45;4.55;;;9.60;99.90;;;;;;5028843;28;20535;-76
2021/05/31 05:21:13;;;;;;;6.60;4.82;;;9.70;99.90;;;;;;5035010;28;20081;-76
2021/05/31 05:23:39;;;;;;;7.05;4.13;;;9.80;99.90;;;;;;5021207;28;20507;-76
2021/05/31 05:26:05;;;;;;;6.75;5.05;;;9.80;99.90;;;;;;5042301;28;20120;-76
2021/05/31 05:28:32;;;;;;;5.93;4.47;;;9.90;99.90;;;;;;5042483;28;20163;-76
2021/05/31 05:31:02;;;;;;;11.32;4.93;;;10.00;99.90;;;;;;5044493;28;20069;-75
2021/05/31 05:33:28;;;;;;;5.75;4.35;;;10.00;99.90;;;;;;5040966;28;20082;-76
2021/05/31 05:35:58;;;;;;;6.75;4.70;;;10.00;99.90;;;;;;5042343;28;20108;-76
2021/05/31 05:41:18;;;;;;;5.50;4.38;;;10.10;99.90;;;;;;5044199;28;20070;-75
2021/05/31 05:46:49;;;;;;;6.78;4.28;;;10.20;99.90;;;;;;4985738;28;20085;-75
2021/05/31 05:49:15;;;;;;;5.30;4.22;;;10.20;99.90;;;;;;5021758;28;20074;-75
2021/05/31 05:51:40;;;;;;;6.93;5.13;;;10.40;99.90;;;;;;5029220;28;20074;-75
2021/05/31 05:54:06;;;;;;;6.05;4.50;;;10.50;99.90;;;;;;5037191;28;20069;-75
2021/05/31 05:56:32;;;;;;;6.10;4.30;;;10.50;99.90;;;;;;5011707;28;20100;-75
2021/05/31 05:58:58;;;;;;;4.95;4.32;;;10.50;99.90;;;;;;5034886;28;20074;-76
2021/05/31 06:01:25;;;;;;;5.25;4.10;;;10.60;99.90;;;;;;5039938;28;20534;-75
2021/05/31 06:03:52;;;;;;;5.90;4.63;;;10.70;99.90;;;;;;5044656;28;20073;-76
2021/05/31 06:06:23;;;;;;;4.75;4.25;;;10.70;99.90;;;;;;5026662;28;20124;-76
2021/05/31 06:08:49;;;;;;;7.35;4.30;;;10.70;99.90;;;;;;5037127;28;20081;-76
2021/05/31 06:11:15;;;;;;;5.75;4.07;;;10.80;99.90;;;;;;5030375;28;20074;-76
2021/05/31 06:13:42;;;;;;;4.97;4.10;;;11.00;99.90;;;;;;5036481;28;20146;-75
2021/05/31 06:16:10;;;;;;;6.35;4.00;;;11.00;99.90;;;;;;5034200;28;20105;-75
2021/05/31 06:18:36;;;;;;;4.88;3.90;;;11.10;99.90;;;;;;5042676;28;20127;-75
2021/05/31 06:21:02;;;;;;;4.63;4.10;;;11.10;99.90;;;;;;5024750;28;20445;-75
2021/05/31 06:23:28;;;;;;;9.15;4.13;;;11.20;99.90;;;;;;5040286;28;20070;-76
2021/05/31 06:25:54;;;;;;;5.50;4.25;;;11.20;99.90;;;;;;5031849;28;20582;-75
2021/05/31 06:28:20;;;;;;;5.15;3.88;;;11.10;99.90;;;;;;5025252;28;20077;-75
2021/05/31 06:30:46;;;;;;;5.32;4.28;;;11.20;99.90;;;;;;5014457;28;20094;-75
2021/05/31 06:33:12;;;;;;;4.57;3.78;;;11.40;99.90;;;;;;5039025;28;20450;-76
2021/05/31 06:35:38;;;;;;;4.85;3.85;;;11.50;99.90;;;;;;5033488;28;20610;-76
2021/05/31 06:38:04;;;;;;;4.88;4.25;;;11.50;99.90;;;;;;5018451;28;20098;-76
2021/05/31 06:40:30;;;;;;;5.38;3.85;;;11.60;99.90;;;;;;5024024;28;20084;-76
2021/05/31 06:42:57;;;;;;;5.20;3.47;;;11.80;99.90;;;;;;5029056;28;20153;-75
2021/05/31 06:45:25;;;;;;;5.60;4.47;;;11.90;99.90;;;;;;5033042;28;20128;-75
2021/05/31 06:47:52;;;;;;;6.30;4.38;;;12.00;99.90;;;;;;5030946;28;20100;-77
2021/05/31 06:50:19;;;;;;;5.75;4.20;;;12.00;99.90;;;;;;5048607;28;20077;-78
2021/05/31 06:52:45;;;;;;;5.85;3.97;;;12.00;99.90;;;;;;5041003;28;20078;-76
2021/05/31 06:55:12;;;;;;;5.65;4.50;;;12.00;99.90;;;;;;5045512;28;20111;-76
2021/05/31 06:57:39;;;;;;;5.22;4.32;;;12.10;99.90;;;;;;5032225;28;20550;-77
2021/05/31 07:00:08;;;;;;;5.30;4.50;;;12.00;99.90;;;;;;5035337;28;20082;-73
2021/05/31 07:02:34;;;;;;;5.70;3.83;;;12.00;99.90;;;;;;5044401;28;20078;-76
2021/05/31 07:04:59;;;;;;;5.32;4.22;;;12.10;99.90;;;;;;5047537;28;20131;-74
2021/05/31 07:07:25;;;;;;;5.30;4.57;;;12.00;99.90;;;;;;5035465;28;20094;-77
2021/05/31 07:09:50;;;;;;;5.38;4.00;;;12.20;99.90;;;;;;5032219;28;20392;-73
2021/05/31 07:12:16;;;;;;;7.20;4.25;;;12.20;99.90;;;;;;5033596;28;20147;-75
2021/05/31 07:14:46;;;;;;;4.88;4.35;;;12.30;99.90;;;;;;5033749;28;20085;-74
2021/05/31 07:17:13;;;;;;;5.00;4.07;;;12.40;99.90;;;;;;5024079;28;20094;-77
2021/05/31 07:19:44;;;;;;;5.30;4.50;;;12.40;99.90;;;;;;5034806;28;20074;-78
2021/05/31 07:22:22;;;;;;;5.20;3.80;;;12.40;99.90;;;;;;5048418;28;20477;-77
2021/05/31 07:24:47;;;;;;;4.18;3.50;;;12.50;99.90;;;;;;5019445;28;20506;-76
2021/05/31 07:27:13;;;;;;;5.72;3.22;;;12.80;99.90;;;;;;5039371;28;20180;-74
2021/05/31 07:29:39;;;;;;;6.40;3.70;;;12.70;99.90;;;;;;5025536;28;20651;-77
2021/05/31 07:32:06;;;;;;;4.60;4.07;;;12.80;99.90;;;;;;5028705;28;20113;-75
2021/05/31 07:34:31;;;;;;;7.05;3.85;;;12.60;99.90;;;;;;5036410;28;20574;-76
2021/05/31 07:36:57;;;;;;;5.05;3.58;;;12.60;99.90;;;;;;5043725;28;20102;-75
2021/05/31 07:39:23;;;;;;;5.13;3.97;;;12.70;99.90;;;;;;5041168;28;20074;-75
2021/05/31 07:41:49;;;;;;;5.30;3.10;;;12.60;99.90;;;;;;5021999;28;20534;-75
2021/05/31 07:44:14;;;;;;;4.55;3.92;;;12.70;99.90;;;;;;5047318;28;20074;-77
2021/05/31 07:46:40;;;;;;;4.78;3.15;;;12.70;99.90;;;;;;5035779;28;20447;-76
2021/05/31 07:49:06;;;;;;;4.10;3.15;;;12.70;99.90;;;;;;5036119;28;20121;-75
2021/05/31 07:51:32;;;;;;;4.45;2.90;;;12.90;99.90;;;;;;5043440;28;20078;-76
2021/05/31 07:53:58;;;;;;;4.20;3.25;;;13.00;99.90;;;;;;5029877;28;20890;-76
2021/05/31 07:56:27;;;;;;;4.05;3.00;;;13.10;99.90;;;;;;5029515;28;20097;-75
2021/05/31 07:58:53;;;;;;;3.08;2.53;;;13.10;99.90;;;;;;5028079;28;20082;-75
2021/05/31 08:01:19;;;;;;;4.15;3.60;;;13.20;99.90;;;;;;5032600;28;20603;-75
2021/05/31 08:03:46;;;;;;;3.15;2.85;;;13.10;99.90;;;;;;5030513;28;20082;-75
2021/05/31 08:06:12;;;;;;;4.55;3.00;;;13.20;99.90;;;;;;5029461;28;20100;-75
2021/05/31 08:08:39;;;;;;;3.35;3.03;;;13.30;99.90;;;;;;5031152;28;20580;-75
2021/05/31 08:11:05;;;;;;;4.15;3.60;;;13.30;99.90;;;;;;5044089;28;20069;-76
2021/05/31 08:13:31;;;;;;;5.10;3.10;;;13.30;99.90;;;;;;5040492;28;20081;-80
2021/05/31 08:15:56;;;;;;;3.65;2.80;;;13.40;99.90;;;;;;5036431;28;20099;-74
2021/05/31 08:18:22;;;;;;;2.97;2.60;;;13.20;99.90;;;;;;5044546;28;20449;-74
2021/05/31 08:20:48;;;;;;;2.78;2.50;;;13.20;99.90;;;;;;5048051;28;20073;-74
2021/05/31 08:23:14;;;;;;;3.40;2.72;;;13.40;99.90;;;;;;5040623;28;20089;-74
2021/05/31 08:25:41;;;;;;;3.63;2.60;;;13.20;99.90;;;;;;5036932;28;20078;-72
2021/05/31 08:28:06;;;;;;;3.13;2.83;;;13.40;99.90;;;;;;5030130;28;20090;-73
2021/05/31 08:30:33;;;;;;;3.00;2.50;;;13.30;99.90;;;;;;5030887;28;20081;-76
2021/05/31 08:33:00;;;;;;;2.83;2.42;;;13.30;99.90;;;;;;5019135;28;20074;-76
2021/05/31 08:35:26;;;;;;;3.72;2.80;;;13.50;99.90;;;;;;5043542;28;20090;-74
2021/05/31 08:37:52;;;;;;;4.00;2.47;;;13.50;99.90;;;;;;5041820;28;20093;-75
2021/05/31 08:40:19;;;;;;;5.25;2.80;;;13.60;99.90;;;;;;5040931;28;20074;-76
2021/05/31 08:42:46;;;;;;;3.13;2.65;;;13.70;99.90;;;;;;5048354;28;20124;-76
2021/05/31 08:45:14;;;;;;;3.17;2.58;;;13.90;99.90;;;;;;5018685;28;20110;-76
2021/05/31 08:47:43;;;;;;;2.58;2.30;;;13.60;98.40;;;;;;5029574;28;20121;-75
2021/05/31 08:50:09;;;;;;;2.45;2.15;;;13.70;97.30;;;;;;5033245;28;20083;-76
2021/05/31 08:52:36;;;;;;;3.38;2.55;;;13.50;98.40;;;;;;5043307;28;20570;-78
2021/05/31 08:55:05;;;;;;;4.50;3.15;;;13.70;99.40;;;;;;5042675;28;20241;-74
2021/05/31 08:57:31;;;;;;;4.22;3.22;;;13.90;99.40;;;;;;5043490;28;20086;-78
2021/05/31 08:59:56;;;;;;;3.60;2.75;;;14.00;99.80;;;;;;5042279;28;20624;-74
2021/05/31 09:02:22;;;;;;;3.53;2.50;;;13.90;99.90;;;;;;5047010;28;20084;-74
2021/05/31 09:04:51;;;;;;;4.43;3.25;;;14.10;99.90;;;;;;5039646;28;20815;-75
2021/05/31 09:07:21;;;;;;;4.03;3.08;;;13.80;99.20;;;;;;5042309;28;20090;-74
2021/05/31 09:09:47;;;;;;;5.40;3.67;;;13.90;99.70;;;;;;5048858;28;20119;-73
2021/05/31 09:12:20;;;;;;;3.17;2.88;;;14.10;99.80;;;;;;5046750;28;20191;-74
2021/05/31 09:14:59;;;;;;;5.97;3.42;;;14.30;99.70;;;;;;5043848;28;20164;-74
2021/05/31 09:17:27;;;;;;;4.88;3.25;;;14.10;99.00;;;;;;5043532;28;20085;-74
2021/05/31 09:19:53;;;;;;;3.00;2.40;;;14.10;97.90;;;;;;5042416;28;20112;-74
2021/05/31 09:22:19;;;;;;;4.00;3.35;;;14.10;98.80;;;;;;5042918;28;20102;-74
2021/05/31 09:24:55;;;;;;;3.28;2.83;;;14.00;98.80;;;;;;5042802;28;20140;-74
2021/05/31 09:27:21;;;;;;;4.45;3.25;;;13.90;99.90;;;;;;5045431;28;20569;-74
2021/05/31 09:29:58;;;;;;;4.75;2.97;;;13.90;99.70;;;;;;5043561;28;20088;-74
2021/05/31 09:32:24;;;;;;;3.53;2.88;;;13.70;99.90;;;;;;5045203;28;20104;-74
2021/05/31 09:35:08;;;;;;;5.60;3.65;;;13.90;99.90;;;;;;5044064;28;20122;-73
2021/05/31 09:37:47;;;;;;;4.57;3.10;;;14.10;99.50;;;;;;5023662;28;20094;-73
2021/05/31 09:40:18;;;;;;;3.45;2.70;;;14.50;99.90;;;;;;5040142;28;20066;-73
2021/05/31 09:42:54;;;;;;;5.05;2.78;;;14.20;98.10;;;;;;5032874;28;20074;-74
2021/05/31 09:45:20;;;;;;;3.17;2.80;;;14.30;98.30;;;;;;5025592;28;20088;-77
2021/05/31 09:47:46;;;;;;;4.40;2.70;;;14.60;98.40;;;;;;5043065;28;20492;-75
2021/05/31 09:50:20;;;;;;;3.65;2.92;;;14.70;97.20;;;;;;5041884;28;20073;-74
2021/05/31 09:52:45;;;;;;;3.60;2.80;;;14.50;96.50;;;;;;5038427;28;20088;-74
2021/05/31 09:55:11;;;;;;;3.75;2.72;;;14.30;97.50;;;;;;5038633;28;20090;-74
2021/05/31 09:57:38;;;;;;;4.05;3.33;;;14.40;98.10;;;;;;5038716;28;20566;-74
2021/05/31 10:00:14;;;;;;;4.18;3.13;;;14.50;97.60;;;;;;5033661;28;20612;-73
2021/05/31 10:10:44;;;;;;;3.22;2.38;;;14.80;96.60;;;;;;5047867;28;20088;-74
2021/05/31 10:13:10;;;;;;;3.55;2.15;;;14.90;95.40;;;;;;5041456;28;20175;-75
2021/05/31 10:15:40;;;;;;;5.63;3.13;;;14.80;96.40;;;;;;5042502;28;20533;-74
2021/05/31 10:18:06;;;;;;;3.25;2.28;;;14.80;95.30;;;;;;5032683;28;20082;-74
2021/05/31 10:20:32;;;;;;;2.67;2.00;;;14.90;94.80;;;;;;5037771;28;20065;-74
2021/05/31 10:22:59;;;;;;;2.97;2.53;;;15.10;94.90;;;;;;5043505;28;20088;-74
2021/05/31 10:25:26;;;;;;;3.17;2.47;;;14.90;93.70;;;;;;5031548;28;20168;-74
2021/05/31 10:27:59;;;;;;;2.97;2.42;;;14.90;95.30;;;;;;5035776;28;20176;-74
2021/05/31 10:30:25;;;;;;;2.90;2.60;;;14.90;93.90;;;;;;5014668;28;20585;-75
2021/05/31 10:32:52;;;;;;;2.72;2.22;;;15.00;95.40;;;;;;5029326;28;20090;-75
2021/05/31 10:35:20;;;;;;;3.88;3.00;;;15.20;95.00;;;;;;5029550;28;20184;-75
2021/05/31 10:38:19;;;;;;;3.42;2.42;;;15.20;95.70;;;;;;5043694;28;20086;-75
2021/05/31 10:40:47;;;;;;;3.50;2.92;;;14.90;96.20;;;;;;5035018;28;20496;-76
2021/05/31 10:43:16;;;;;;;3.72;2.90;;;15.10;96.30;;;;;;5032668;28;20557;-74
2021/05/31 10:45:43;;;;;;;7.68;2.80;;;15.40;95.20;;;;;;5031255;28;20131;-75
2021/05/31 10:48:18;;;;;;;3.55;2.38;;;15.20;94.80;;;;;;5030284;28;20192;-74
2021/05/31 10:50:52;;;;;;;4.32;3.30;;;15.20;95.50;;;;;;5013807;28;20905;-77
2021/05/31 10:53:18;;;;;;;3.30;2.70;;;15.10;95.30;;;;;;5037377;28;20122;-74
2021/05/31 10:55:59;;;;;;;5.15;2.80;;;15.20;95.30;;;;;;5041567;28;20098;-75
2021/05/31 10:58:37;;;;;;;3.83;2.50;;;15.20;95.40;;;;;;5033126;28;20105;-75
2021/05/31 11:01:17;;;;;;;3.90;2.47;;;15.20;95.00;;;;;;5033873;28;20074;-74
2021/05/31 11:03:52;;;;;;;4.22;2.75;;;15.40;95.70;;;;;;5030689;28;21071;-74
2021/05/31 11:06:21;;;;;;;2.47;2.28;;;15.70;95.70;;;;;;5041705;28;20724;-75
2021/05/31 11:08:57;;;;;;;3.90;2.60;;;15.60;93.40;;;;;;5042331;28;20821;-75
2021/05/31 11:11:28;;;;;;;5.40;2.85;;;15.60;95.00;;;;;;5028157;28;20131;-75
2021/05/31 11:13:55;;;;;;;4.95;3.13;;;15.90;95.60;;;;;;5031141;28;20090;-74
2021/05/31 11:16:22;;;;;;;5.70;2.70;;;15.30;94.60;;;;;;5042360;28;20125;-74
2021/05/31 11:18:49;;;;;;;3.30;2.83;;;15.10;95.20;;;;;;5039024;28;20077;-74
2021/05/31 11:21:34;;;;;;;5.22;2.78;;;15.30;95.10;;;;;;5028547;28;20084;-76
2021/05/31 11:24:09;;;;;;;2.90;2.60;;;15.20;94.90;;;;;;5042470;28;20069;-74
2021/05/31 11:26:36;;;;;;;;;;;15.60;95.90;;;;;;5047463;28;20100;-74
2021/05/31 11:29:04;;;;;;;3.30;2.80;;;15.40;93.80;;;;;;5047582;28;19964;-74
2021/05/31 11:31:29;;;;;;;3.67;2.78;;;15.10;95.00;;;;;;5044133;28;20066;-74
2021/05/31 11:33:56;;;;;;;3.28;2.92;;;15.20;96.20;;;;;;5048135;28;20204;-73
2021/05/31 11:36:29;;;;;;;3.35;2.45;;;15.20;95.30;;;;;;5045788;28;20108;-74
2021/05/31 11:38:54;;;;;;;3.15;2.85;;;15.60;95.30;;;;;;5048097;28;20121;-73
2021/05/31 11:41:56;;;;;;;3.28;2.50;;;15.40;94.20;;;;;;5029332;28;20077;-75
2021/05/31 11:44:30;;;;;;;3.28;2.80;;;15.70;93.90;;;;;;4962997;28;20131;-76
2021/05/31 11:47:03;;;;;;;3.25;2.53;;;15.80;93.30;;;;;;5032388;28;20572;-76
2021/05/31 11:49:36;;;;;;;3.00;2.33;;;15.60;94.00;;;;;;5044390;28;20077;-75
2021/05/31 11:52:10;;;;;;;4.35;2.80;;;15.80;94.00;;;;;;5048504;28;20131;-76
2021/05/31 11:54:38;;;;;;;2.58;2.38;;;15.80;93.40;;;;;;5044248;28;20090;-76
2021/05/31 11:57:17;;;;;;;2.58;2.28;;;16.00;95.40;;;;;;5046776;28;20204;-75
2021/05/31 11:59:44;;;;;;;3.85;2.25;;;16.20;92.40;;;;;;5046486;28;20144;-75
2021/05/31 12:02:15;;;;;;;1.98;1.67;;;16.10;94.30;;;;;;5024472;28;20066;-75
2021/05/31 12:04:44;;;;;;;3.17;2.30;;;16.10;92.20;;;;;;5039056;28;20152;-75
2021/05/31 12:07:13;;;;;;;2.08;1.67;;;16.00;91.20;;;;;;5031373;28;20090;-74
2021/05/31 12:09:42;;;;;;;2.50;2.05;;;16.20;91.20;;;;;;5050922;28;20066;-76
2021/05/31 12:12:12;;;;;;;3.22;2.20;;;16.00;90.80;;;;;;5032604;28;20074;-75
2021/05/31 12:14:50;;;;;;;3.47;2.40;;;16.00;91.80;;;;;;5041923;28;20507;-75
2021/05/31 12:17:16;;;;;;;2.20;2.00;;;16.00;91.70;;;;;;5048976;28;20093;-75
2021/05/31 12:19:45;;;;;;;2.33;1.90;;;16.00;91.20;;;;;;5048885;28;20077;-76
2021/05/31 12:22:11;;;;;;;3.03;2.35;;;16.00;91.50;;;;;;5031839;28;20070;-76
2021/05/31 12:24:42;;;;;;;2.70;2.10;;;16.10;91.90;;;;;;5046900;28;20148;-77
2021/05/31 12:27:12;;;;;;;2.92;2.30;;;16.30;93.30;;;;;;5046296;28;20109;-75
2021/05/31 12:29:40;;;;;;;3.85;2.15;;;16.30;92.70;;;;;;5033429;28;20079;-79
2021/05/31 12:32:09;;;;;;;3.28;2.08;;;16.50;92.40;;;;;;5046253;28;20074;-75
2021/05/31 12:34:35;;;;;;;2.65;2.03;;;16.40;91.10;;;;;;5021063;28;20089;-74
2021/05/31 12:37:06;;;;;;;3.05;2.20;;;16.10;89.20;;;;;;5045834;28;20094;-74
2021/05/31 12:39:33;;;;;;;1.85;1.67;;;16.20;93.90;;;;;;5039842;28;20522;-74
2021/05/31 12:42:05;;;;;;;3.35;1.73;;;16.30;91.40;;;;;;5046022;28;20082;-75
2021/05/31 12:44:31;;;;;;;2.97;1.80;;;16.40;91.40;;;;;;5042389;28;20070;-76
2021/05/31 12:47:14;;;;;;;2.20;1.92;;;16.20;90.50;;;;;;5046412;28;20490;-75
2021/05/31 12:49:47;;;;;;;4.07;2.58;;;16.30;90.00;;;;;;5046319;28;20085;-77
2021/05/31 12:52:13;;;;;;;4.82;2.25;;;16.30;90.30;;;;;;5051146;28;20073;-73
2021/05/31 12:54:40;;;;;;;2.47;1.90;;;16.30;89.40;;;;;;5042949;28;20092;-74
2021/05/31 12:57:17;;;;;;;2.28;1.88;;;16.30;87.50;;;;;;5047692;28;20086;-74
2021/05/31 12:59:47;;;;;;;4.18;1.80;;;16.20;89.50;;;;;;5048518;28;20097;-73
2021/05/31 13:02:17;;;;;;;2.47;1.77;;;16.50;91.90;;;;;;5030954;28;20092;-76
2021/05/31 13:04:43;;;;;;;2.83;1.90;;;16.60;88.00;;;;;;5040508;28;20461;-73
2021/05/31 13:07:17;;;;;;;1.48;1.35;;;16.60;87.50;;;;;;5037950;28;20089;-75
2021/05/31 13:09:43;;;;;;;4.93;1.85;;;16.60;89.80;;;;;;5039882;28;20164;-74
2021/05/31 13:12:09;;;;;;;2.10;1.50;;;16.80;88.80;;;;;;5043997;28;20096;-74
2021/05/31 13:14:41;;;;;;;2.95;2.08;;;16.60;86.30;;;;;;5045124;28;20097;-74